Time;durP1;ratioP1;P1;durP2;ratioP2;P2;SDS_P1;SDS_P2;PMS_P1;PMS_P2;Temp;Humidity;BMP_temperature;BMP_pressure;BME280_temperature;BME280_humidity;BME280_pressure;Samples;Min_cycle;Max_cycle;Signal;HPM_P1;HPM_P2
2021/01/19 00:00:02;;;;;;;10.43;9.43;;;;;;;11.12;44.62;101160.06;5000800;28;99050;-74
2021/01/19 00:02:39;;;;;;;9.15;8.20;;;;;;;11.17;44.14;101159.50;4999316;28;98087;-74
2021/01/19 00:05:07;;;;;;;13.05;9.55;;;;;;;11.20;44.19;101159.66;4999070;28;96892;-74
2021/01/19 00:07:36;;;;;;;11.63;8.75;;;;;;;11.20;43.90;101156.16;4999836;28;97249;-73
2021/01/19 00:10:05;;;;;;;16.17;9.30;;;;;;;11.23;43.89;101153.69;5017114;27;99303;-74
2021/01/19 00:12:32;;;;;;;12.20;10.45;;;;;;;11.26;43.80;101164.38;4998220;28;97914;-73
2021/01/19 00:15:19;;;;;;;10.73;9.65;;;;;;;11.31;44.23;101159.38;5000057;28;97146;-73
2021/01/19 00:17:46;;;;;;;9.95;8.30;;;;;;;11.33;44.16;101163.88;5016435;27;97490;-74
2021/01/19 00:20:14;;;;;;;11.63;9.48;;;;;;;11.36;43.70;101164.09;4999459;28;99039;-73
2021/01/19 00:22:42;;;;;;;9.35;8.43;;;;;;;11.40;44.01;101166.06;4999322;28;97720;-73
2021/01/19 00:25:11;;;;;;;10.20;9.25;;;;;;;11.43;43.82;101163.59;5016870;27;98171;-73
2021/01/19 00:27:39;;;;;;;10.88;9.18;;;;;;;11.43;43.83;101168.88;5018221;27;97775;-72
2021/01/19 00:30:07;;;;;;;10.35;9.00;;;;;;;11.43;43.93;101154.78;4997972;28;99924;-73
2021/01/19 00:32:35;;;;;;;13.68;9.00;;;;;;;11.40;43.79;101160.81;4982610;28;99173;-73
2021/01/19 00:35:02;;;;;;;9.10;8.30;;;;;;;11.37;43.88;101163.25;5014394;27;97757;-72
2021/01/19 00:37:30;;;;;;;10.30;9.02;;;;;;;11.37;43.59;101157.09;5001361;28;97314;-72
2021/01/19 00:39:58;;;;;;;9.43;8.45;;;;;;;11.36;43.46;101158.81;5000081;28;99275;-74
2021/01/19 00:42:26;;;;;;;10.85;9.00;;;;;;;11.31;43.88;101160.31;5014568;27;98068;-72
2021/01/19 00:44:53;;;;;;;9.93;8.93;;;;;;;11.29;43.66;101156.69;4980515;28;97676;-73
2021/01/19 00:47:21;;;;;;;10.48;8.95;;;;;;;11.24;43.82;101160.75;4995451;28;97800;-73
2021/01/19 00:49:49;;;;;;;9.88;8.88;;;;;;;11.21;44.16;101147.44;4995965;28;98287;-74
2021/01/19 00:52:16;;;;;;;11.20;9.32;;;;;;;11.12;44.26;101152.19;5016113;27;97815;-73
2021/01/19 00:54:44;;;;;;;14.00;10.13;;;;;;;11.08;44.15;101140.59;4998993;28;97870;-74
2021/01/19 00:57:12;;;;;;;12.07;8.93;;;;;;;11.05;44.60;101144.78;5000265;28;98239;-77
2021/01/19 00:59:41;;;;;;;10.30;9.27;;;;;;;11.01;44.08;101145.41;5015229;27;100091;-73
2021/01/19 01:02:08;;;;;;;9.80;8.88;;;;;;;10.98;44.14;101132.97;5000936;28;98197;-73
2021/01/19 01:04:36;;;;;;;10.35;9.35;;;;;;;10.98;44.46;101143.50;5001029;28;97177;-74
2021/01/19 01:07:03;;;;;;;10.20;9.18;;;;;;;10.97;44.17;101138.16;4998836;28;97590;-74
2021/01/19 01:09:37;;;;;;;13.10;9.70;;;;;;;11.01;44.71;101132.25;4999757;28;101315;-74
2021/01/19 01:12:05;;;;;;;10.52;9.45;;;;;;;11.05;44.80;101134.25;4998757;28;99985;-73
2021/01/19 01:14:34;;;;;;;10.48;9.38;;;;;;;11.07;44.77;101135.25;4983147;28;97595;-74
2021/01/19 01:17:02;;;;;;;10.38;8.15;;;;;;;11.08;44.61;101132.69;4981990;28;97677;-73
2021/01/19 01:19:29;;;;;;;9.65;8.70;;;;;;;11.08;44.49;101131.78;4999816;28;97951;-73
2021/01/19 01:21:59;;;;;;;11.77;10.38;;;;;;;11.09;44.70;101123.09;5000319;28;102306;-73
2021/01/19 01:24:27;;;;;;;10.43;9.23;;;;;;;11.11;43.90;101124.09;4997314;28;97663;-73
2021/01/19 01:26:54;;;;;;;10.38;9.05;;;;;;;11.07;44.63;101127.38;5016662;27;97165;-73
2021/01/19 01:29:22;;;;;;;10.68;9.60;;;;;;;11.05;44.63;101122.03;5000147;28;99479;-74
2021/01/19 01:31:50;;;;;;;12.68;9.18;;;;;;;11.08;44.26;101118.66;5000086;28;98651;-74
2021/01/19 01:34:18;;;;;;;11.57;9.32;;;;;;;11.07;44.52;101111.59;4998517;28;97015;-74
2021/01/19 01:36:45;;;;;;;11.20;9.20;;;;;;;11.04;44.72;101112.31;4999803;28;97265;-74
2021/01/19 01:39:49;;;;;;;12.60;9.23;;;;;;;11.07;44.57;101108.97;4997365;28;97471;-74
2021/01/19 01:42:20;;;;;;;10.43;9.43;;;;;;;11.09;44.72;101109.97;4999367;28;97829;-75
2021/01/19 01:44:48;;;;;;;11.48;9.88;;;;;;;11.08;44.24;101100.25;4999415;28;98240;-74
2021/01/19 01:47:22;;;;;;;9.95;8.98;;;;;;;11.08;44.90;101092.34;4997778;28;96836;-74
2021/01/19 01:49:51;;;;;;;10.18;9.20;;;;;;;11.08;44.91;101092.34;4999562;28;99473;-73
2021/01/19 01:52:20;;;;;;;10.32;9.32;;;;;;;11.08;44.21;101089.72;5019833;27;98064;-72
2021/01/19 01:54:49;;;;;;;15.20;11.93;;;;;;;11.14;44.73;101092.72;5000878;28;97860;-75
2021/01/19 01:57:17;;;;;;;10.00;8.90;;;;;;;11.11;44.39;101089.91;5003562;28;97072;-74
2021/01/19 01:59:48;;;;;;;13.40;9.80;;;;;;;11.14;44.26;101098.88;5001057;28;98194;-74
2021/01/19 02:02:17;;;;;;;10.50;9.43;;;;;;;11.16;44.88;101104.22;5002294;28;99166;-74
2021/01/19 02:04:44;;;;;;;10.70;9.27;;;;;;;11.16;44.68;101098.97;5001722;28;97843;-73
2021/01/19 02:07:25;;;;;;;9.75;8.85;;;;;;;11.21;44.60;101094.84;5003526;28;96750;-74
2021/01/19 02:09:58;;;;;;;9.48;8.48;;;;;;;11.23;44.20;101087.94;5002210;28;99115;-74
2021/01/19 02:12:49;;;;;;;13.05;9.13;;;;;;;11.28;44.22;101086.47;5003014;28;101200;-74
2021/01/19 02:15:22;;;;;;;9.70;8.45;;;;;;;11.31;44.54;101075.22;5000655;28;97232;-74
2021/01/19 02:18:04;;;;;;;10.18;8.43;;;;;;;11.39;44.61;101085.34;5002598;28;97011;-73
2021/01/19 02:20:58;;;;;;;10.18;9.00;;;;;;;11.44;44.27;101072.44;5003934;28;97889;-73
2021/01/19 02:23:43;;;;;;;8.85;7.85;;;;;;;11.45;44.03;101072.53;5001042;28;99328;-72
2021/01/19 02:26:51;;;;;;;10.15;9.15;;;;;;;11.44;44.43;101075.97;5000998;28;97416;-74
2021/01/19 02:29:37;;;;;;;10.05;8.98;;;;;;;11.50;43.97;101067.50;5003637;28;97522;-73
2021/01/19 02:32:13;;;;;;;9.32;8.48;;;;;;;11.50;43.94;101057.88;5001347;28;99457;-73
2021/01/19 02:34:46;;;;;;;10.38;8.48;;;;;;;11.52;43.54;101058.88;5000109;28;97229;-73
2021/01/19 02:37:17;;;;;;;9.93;9.05;;;;;;;11.53;44.01;101051.91;5001523;28;97254;-73
2021/01/19 02:39:47;;;;;;;10.18;9.10;;;;;;;11.55;43.75;101037.09;5004022;28;98123;-72
2021/01/19 02:42:18;;;;;;;10.05;8.35;;;;;;;11.53;43.96;101022.97;5001118;28;97953;-73
2021/01/19 02:44:48;;;;;;;9.63;8.63;;;;;;;11.59;43.58;101031.16;5001406;28;97726;-74
2021/01/19 02:47:16;;;;;;;10.52;9.60;;;;;;;11.59;43.97;101032.06;5019198;27;97378;-73
2021/01/19 02:49:44;;;;;;;8.98;8.18;;;;;;;11.58;43.78;101030.28;5001314;28;98160;-73
2021/01/19 02:52:12;;;;;;;9.82;8.82;;;;;;;11.59;43.77;101032.06;5002451;28;97910;-72
2021/01/19 02:54:57;;;;;;;9.68;8.68;;;;;;;11.54;44.15;101028.28;5000480;28;98045;-73
2021/01/19 02:57:37;;;;;;;9.73;8.80;;;;;;;11.53;44.19;101030.84;5002058;28;98257;-73
2021/01/19 03:00:11;;;;;;;9.43;8.20;;;;;;;11.52;43.54;101034.28;5002643;28;97434;-73
2021/01/19 03:02:43;;;;;;;9.43;8.45;;;;;;;11.50;43.69;101031.59;4993882;28;98147;-73
2021/01/19 03:05:12;;;;;;;8.63;7.60;;;;;;;11.54;43.91;101025.66;5016267;27;99635;-73
2021/01/19 03:07:42;;;;;;;8.90;8.05;;;;;;;11.57;43.68;101020.56;4996989;28;98028;-73
2021/01/19 03:10:11;;;;;;;9.27;8.00;;;;;;;11.59;43.88;101016.28;4998830;28;97482;-73
2021/01/19 03:12:40;;;;;;;11.90;8.70;;;;;;;11.62;43.55;101016.47;4998760;28;99288;-74
2021/01/19 03:15:09;;;;;;;8.27;7.57;;;;;;;11.63;43.55;100997.22;4997429;28;98912;-74
2021/01/19 03:17:36;;;;;;;10.52;8.65;;;;;;;11.65;43.90;100995.59;4998141;28;97730;-74
2021/01/19 03:20:06;;;;;;;9.38;7.88;;;;;;;11.65;43.46;100995.59;5000014;28;97193;-74
2021/01/19 03:22:33;;;;;;;8.10;7.43;;;;;;;11.64;43.50;100992.84;5014955;27;97642;-73
2021/01/19 03:25:02;;;;;;;7.80;7.20;;;;;;;11.62;43.58;100992.78;4997642;28;98135;-74
2021/01/19 03:27:29;;;;;;;7.18;6.53;;;;;;;11.61;43.90;100990.97;4982533;28;96808;-74
2021/01/19 03:29:57;;;;;;;7.25;6.60;;;;;;;11.59;43.90;100981.16;4999219;28;97939;-74
2021/01/19 03:32:24;;;;;;;6.97;6.38;;;;;;;11.60;44.01;100980.34;4998039;28;100507;-74
2021/01/19 03:34:52;;;;;;;7.13;6.57;;;;;;;11.58;43.90;100976.75;5002435;28;96964;-73
2021/01/19 03:37:20;;;;;;;6.40;5.90;;;;;;;11.59;43.56;100974.19;4999030;28;97326;-74
2021/01/19 03:39:48;;;;;;;6.63;6.10;;;;;;;11.59;43.30;100976.81;4999779;28;96815;-74
2021/01/19 03:42:15;;;;;;;6.70;6.15;;;;;;;11.60;43.83;100977.72;4996296;28;99585;-74
2021/01/19 03:44:43;;;;;;;7.07;6.45;;;;;;;11.59;43.97;100966.28;4998378;28;98874;-73
2021/01/19 03:47:12;;;;;;;6.57;6.03;;;;;;;11.64;43.68;100967.41;4999561;28;97304;-74
2021/01/19 03:49:39;;;;;;;6.63;6.03;;;;;;;11.66;43.70;100955.28;4997495;28;97744;-74
2021/01/19 03:52:07;;;;;;;6.35;5.85;;;;;;;11.68;43.27;100964.16;5014678;27;100055;-74
2021/01/19 03:54:35;;;;;;;5.65;5.25;;;;;;;11.67;43.75;100957.13;4998197;28;98750;-74
2021/01/19 03:57:03;;;;;;;6.68;6.15;;;;;;;11.63;43.61;100944.59;5015573;27;98219;-74
2021/01/19 03:59:30;;;;;;;7.95;6.45;;;;;;;11.62;43.90;100950.69;4999027;28;97618;-73
2021/01/19 04:01:58;;;;;;;6.97;5.88;;;;;;;11.64;43.34;100946.38;4999141;28;99058;-73
2021/01/19 04:04:25;;;;;;;6.53;5.80;;;;;;;11.63;43.31;100934.06;4997825;28;97995;-73
2021/01/19 04:06:53;;;;;;;7.00;6.50;;;;;;;11.64;43.43;100940.22;4997374;28;98857;-72
2021/01/19 04:09:21;;;;;;;7.18;6.47;;;;;;;11.57;43.53;100933.72;4998467;28;96932;-74
2021/01/19 04:12:08;;;;;;;7.07;6.50;;;;;;;11.55;43.70;100935.38;4998009;28;98059;-74
2021/01/19 04:14:36;;;;;;;6.97;6.38;;;;;;;11.55;43.13;100934.50;4998157;28;100005;-73
2021/01/19 04:17:03;;;;;;;7.32;6.63;;;;;;;11.58;43.67;100946.09;4998974;28;97258;-75
2021/01/19 04:19:30;;;;;;;7.35;6.22;;;;;;;11.54;43.69;100943.19;4997531;28;97593;-73
2021/01/19 04:21:58;;;;;;;7.25;6.55;;;;;;;11.53;43.60;100941.41;4998773;28;97908;-73
2021/01/19 04:24:25;;;;;;;7.32;6.75;;;;;;;11.55;43.34;100940.63;5014904;27;99040;-73
2021/01/19 04:26:53;;;;;;;6.90;6.30;;;;;;;11.53;43.26;100937.03;4998171;28;98938;-73
2021/01/19 04:29:21;;;;;;;7.30;6.60;;;;;;;11.53;43.43;100941.41;4998361;28;98081;-73
2021/01/19 04:31:48;;;;;;;7.50;6.80;;;;;;;11.53;43.66;100937.03;4998195;28;98300;-72
2021/01/19 04:34:16;;;;;;;6.88;6.28;;;;;;;11.49;43.55;100944.69;5013533;27;102630;-72
2021/01/19 04:36:43;;;;;;;7.03;6.43;;;;;;;11.50;43.22;100947.41;4997510;28;97028;-73
2021/01/19 04:39:10;;;;;;;9.73;8.83;;;;;;;11.58;43.74;100934.66;4996824;28;97598;-72
2021/01/19 04:41:40;;;;;;;8.02;7.22;;;;;;;11.55;43.58;100931.88;5013796;27;101343;-73
2021/01/19 04:44:45;;;;;;;7.78;7.07;;;;;;;11.56;43.60;100936.28;4997070;28;98806;-73
2021/01/19 04:47:32;;;;;;;8.00;6.97;;;;;;;11.58;43.38;100922.41;4996825;28;97562;-73
2021/01/19 04:50:00;;;;;;;7.53;6.85;;;;;;;11.58;43.44;100909.25;4999396;28;97172;-74
2021/01/19 04:52:30;;;;;;;7.75;6.90;;;;;;;11.58;43.67;100910.97;4997786;28;101312;-73
2021/01/19 04:55:05;;;;;;;7.38;6.78;;;;;;;11.57;43.39;100907.41;4997316;28;98991;-73
2021/01/19 04:57:34;;;;;;;7.78;7.07;;;;;;;11.61;43.79;100897.97;4997622;28;98163;-74
2021/01/19 05:00:07;;;;;;;8.20;7.50;;;;;;;11.65;43.49;100900.88;4997556;28;97362;-74
2021/01/19 05:03:00;;;;;;;7.75;6.97;;;;;;;11.65;43.84;100892.06;4990758;28;97637;-74
2021/01/19 05:06:02;;;;;;;7.30;6.60;;;;;;;11.66;43.80;100892.13;4995146;28;97654;-73
2021/01/19 05:08:58;;;;;;;6.80;6.20;;;;;;;11.63;43.60;100883.16;5012701;27;97473;-74
2021/01/19 05:11:28;;;;;;;8.35;7.25;;;;;;;11.66;43.18;100886.00;4996322;28;98033;-73
2021/01/19 05:14:00;;;;;;;8.95;7.85;;;;;;;11.69;43.56;100876.53;4995911;28;100920;-73
2021/01/19 05:16:31;;;;;;;7.82;7.13;;;;;;;11.72;43.71;100879.28;4995523;28;97901;-73
2021/01/19 05:19:00;;;;;;;8.77;7.63;;;;;;;11.73;43.64;100878.44;4997851;28;97047;-73
2021/01/19 05:21:28;;;;;;;8.70;7.80;;;;;;;11.74;43.28;100872.38;4997185;28;97552;-74
2021/01/19 05:23:56;;;;;;;8.50;7.63;;;;;;;11.78;43.75;100863.81;4997790;28;98460;-75
2021/01/19 05:26:24;;;;;;;9.57;8.02;;;;;;;11.79;43.68;100848.91;4998272;28;99047;-74
2021/01/19 05:28:52;;;;;;;10.63;8.50;;;;;;;11.78;43.63;100855.94;4995826;28;97865;-74
2021/01/19 05:31:26;;;;;;;8.93;7.90;;;;;;;11.78;43.45;100844.50;4997053;28;97866;-74
2021/01/19 05:34:13;;;;;;;9.27;8.25;;;;;;;11.81;43.46;100845.53;4996413;28;97972;-74
2021/01/19 05:36:46;;;;;;;9.27;8.38;;;;;;;11.80;43.62;100827.94;4996311;28;97810;-74
2021/01/19 05:39:16;;;;;;;73.43;42.22;;;;;;;11.79;43.62;100817.31;4996828;28;97158;-73
2021/01/19 05:41:45;;;;;;;34.22;21.27;;;;;;;11.78;43.60;100831.31;4998173;28;97361;-74
2021/01/19 05:44:15;;;;;;;17.15;11.50;;;;;;;11.77;43.45;100817.25;4997770;28;97207;-74
2021/01/19 05:46:49;;;;;;;8.82;8.02;;;;;;;11.77;43.60;100813.75;4996374;28;98321;-73
2021/01/19 05:49:22;;;;;;;9.02;8.13;;;;;;;11.75;43.54;100800.50;4996765;28;97444;-74
2021/01/19 05:51:50;;;;;;;9.48;7.68;;;;;;;11.75;43.89;100808.38;4998359;28;97767;-73
2021/01/19 05:54:26;;;;;;;7.68;6.93;;;;;;;11.74;43.67;100801.34;4996778;28;99083;-74
2021/01/19 05:57:04;;;;;;;8.90;8.00;;;;;;;11.72;43.62;100796.81;4994679;28;97941;-74
2021/01/19 05:59:34;;;;;;;8.80;7.93;;;;;;;11.75;43.94;100800.50;4995961;28;97799;-74
2021/01/19 06:02:05;;;;;;;7.40;6.70;;;;;;;11.76;44.03;100790.88;4996700;28;97011;-74
2021/01/19 06:04:38;;;;;;;8.63;7.45;;;;;;;11.75;43.94;100784.69;4996539;28;97067;-74
2021/01/19 06:07:06;;;;;;;7.20;6.40;;;;;;;11.76;43.80;100778.63;4995466;28;98101;-74
2021/01/19 06:09:34;;;;;;;9.75;8.80;;;;;;;11.88;43.43;100775.66;4992624;28;97275;-73
2021/01/19 06:12:02;;;;;;;7.45;6.75;;;;;;;11.86;43.58;100769.44;4995455;28;97009;-73
2021/01/19 06:14:29;;;;;;;7.60;6.50;;;;;;;11.86;43.44;100754.53;4996926;28;101502;-73
2021/01/19 06:17:20;;;;;;;7.15;6.53;;;;;;;11.82;43.43;100763.13;4995317;28;99506;-73
2021/01/19 06:19:50;;;;;;;6.43;5.93;;;;;;;11.80;43.88;100764.78;4992726;28;97373;-73
2021/01/19 06:22:20;;;;;;;7.53;6.82;;;;;;;11.83;43.45;100762.28;4996975;28;97945;-74
2021/01/19 06:24:49;;;;;;;7.07;6.13;;;;;;;11.81;43.51;100756.06;4997199;28;97322;-74
2021/01/19 06:27:27;;;;;;;6.75;6.10;;;;;;;11.80;43.72;100749.00;4996989;28;97868;-73
2021/01/19 06:30:10;;;;;;;6.68;6.05;;;;;;;11.86;43.67;100756.28;4996661;28;98682;-74
2021/01/19 06:32:45;;;;;;;6.05;5.45;;;;;;;11.84;43.54;100732.50;4996747;28;97996;-74
2021/01/19 06:35:16;;;;;;;6.78;6.25;;;;;;;11.85;43.51;100730.78;5012539;27;98002;-74
2021/01/19 06:37:45;;;;;;;7.05;6.35;;;;;;;11.86;43.41;100729.97;4996419;28;100312;-72
2021/01/19 06:40:13;;;;;;;6.28;5.68;;;;;;;11.87;43.45;100724.78;4998881;28;97485;-73
2021/01/19 06:42:41;;;;;;;6.70;6.10;;;;;;;11.89;43.55;100712.59;4999630;28;97354;-76
2021/01/19 06:45:11;;;;;;;6.05;5.55;;;;;;;11.91;43.40;100710.03;4998315;28;97808;-74
2021/01/19 06:47:44;;;;;;;6.47;5.97;;;;;;;11.92;43.66;100703.91;4999244;28;100004;-74
2021/01/19 06:50:12;;;;;;;6.65;6.15;;;;;;;11.88;43.25;100701.97;4998973;28;97653;-74
2021/01/19 06:52:42;;;;;;;7.45;6.78;;;;;;;11.88;43.30;100702.88;4999728;28;96847;-73
2021/01/19 06:55:21;;;;;;;7.22;6.60;;;;;;;11.86;43.09;100695.75;4997810;28;98255;-74
2021/01/19 06:58:11;;;;;;;7.07;6.47;;;;;;;11.84;43.32;100690.38;4998875;28;98951;-73
2021/01/19 07:00:40;;;;;;;8.32;6.30;;;;;;;11.83;43.64;100685.97;4995705;28;98712;-74
2021/01/19 07:03:20;;;;;;;8.43;7.63;;;;;;;11.84;43.87;100677.22;4997192;28;98020;-73
2021/01/19 07:05:51;;;;;;;8.50;7.20;;;;;;;11.83;43.83;100675.44;4998593;28;97526;-75
2021/01/19 07:08:59;;;;;;;7.22;6.53;;;;;;;11.84;43.64;100668.44;4999385;28;98870;-73
2021/01/19 07:11:54;;;;;;;7.90;7.20;;;;;;;11.83;43.56;100664.91;4999647;28;97145;-73
2021/01/19 07:14:40;;;;;;;8.38;7.45;;;;;;;11.80;43.89;100667.41;4997057;28;97868;-73
2021/01/19 07:17:10;;;;;;;7.97;7.20;;;;;;;11.82;43.59;100668.38;4996918;28;97850;-75
2021/01/19 07:19:44;;;;;;;9.75;7.78;;;;;;;11.81;43.24;100661.31;4998580;28;97955;-75
2021/01/19 07:22:31;;;;;;;9.45;8.38;;;;;;;11.81;43.49;100665.66;4996728;28;97044;-75
2021/01/19 07:24:59;;;;;;;8.95;8.05;;;;;;;11.80;43.64;100664.78;4995020;28;97078;-72
2021/01/19 07:27:27;;;;;;;9.55;7.45;;;;;;;11.84;43.43;100655.28;5013279;27;98149;-72
2021/01/19 07:29:56;;;;;;;7.32;6.63;;;;;;;11.84;43.43;100650.03;4998935;28;97425;-72
2021/01/19 07:32:25;;;;;;;8.10;7.15;;;;;;;11.85;43.45;100646.56;4999123;28;96934;-72
2021/01/19 07:34:53;;;;;;;8.07;7.28;;;;;;;11.87;43.27;100639.63;5000590;28;97298;-73
2021/01/19 07:37:29;;;;;;;8.00;7.22;;;;;;;11.88;43.50;100633.53;5007594;27;102287;-72
2021/01/19 07:40:19;;;;;;;7.72;6.97;;;;;;;11.86;43.27;100633.47;4998615;28;97928;-73
2021/01/19 07:42:47;;;;;;;8.15;7.32;;;;;;;11.86;43.63;100627.31;4994005;28;97937;-72
2021/01/19 07:45:28;;;;;;;7.50;6.72;;;;;;;11.86;43.23;100622.06;4999692;28;96956;-71
2021/01/19 07:48:05;;;;;;;7.88;7.15;;;;;;;11.87;43.43;100623.84;4996629;28;97968;-71
2021/01/19 07:50:41;;;;;;;7.47;6.82;;;;;;;11.88;43.28;100616.00;4994151;28;98155;-72
2021/01/19 07:53:09;;;;;;;6.88;6.20;;;;;;;11.86;43.67;100606.25;4999522;28;96965;-72
2021/01/19 07:55:46;;;;;;;7.50;6.45;;;;;;;11.86;43.35;100603.63;4997441;28;97386;-72
2021/01/19 07:58:16;;;;;;;6.25;5.82;;;;;;;11.88;43.49;100599.31;4997499;28;98013;-73
2021/01/19 08:00:47;;;;;;;6.30;5.65;;;;;;;11.89;43.33;100590.59;4997550;28;99037;-72
2021/01/19 08:03:16;;;;;;;6.65;6.10;;;;;;;11.94;43.60;100573.28;4998764;28;97439;-73
2021/01/19 08:05:43;;;;;;;6.25;5.80;;;;;;;11.98;43.18;100564.69;4994544;28;98191;-73
2021/01/19 08:08:17;;;;;;;6.38;5.78;;;;;;;12.01;43.04;100559.53;4996353;28;98199;-73
2021/01/19 08:10:58;;;;;;;6.57;5.88;;;;;;;11.94;42.78;100555.75;5010750;27;97965;-73
2021/01/19 08:13:27;;;;;;;7.45;5.80;;;;;;;11.95;43.36;100548.75;5011458;27;97029;-72
2021/01/19 08:16:02;;;;;;;8.05;5.50;;;;;;;11.94;43.33;100557.47;4991803;28;98112;-72
2021/01/19 08:18:38;;;;;;;7.97;6.95;;;;;;;12.01;43.04;100555.19;4991106;28;97961;-71
2021/01/19 08:21:10;;;;;;;6.15;5.65;;;;;;;12.03;42.79;100553.53;4997652;28;98374;-72
2021/01/19 08:23:38;;;;;;;6.13;5.53;;;;;;;12.04;42.85;100544.78;4996755;28;96769;-69
2021/01/19 08:26:08;;;;;;;5.68;5.15;;;;;;;12.08;43.21;100530.91;4995852;28;97221;-70
2021/01/19 08:28:36;;;;;;;7.75;5.30;;;;;;;12.15;43.13;100525.06;4995335;28;97861;-70
2021/01/19 08:31:13;;;;;;;5.95;5.15;;;;;;;12.17;42.99;100523.41;4996524;28;97192;-70
2021/01/19 08:33:42;;;;;;;5.60;5.10;;;;;;;12.19;42.78;100516.47;4995691;28;97343;-71
2021/01/19 08:36:10;;;;;;;6.18;5.22;;;;;;;12.17;43.03;100518.13;4994580;28;97307;-71
2021/01/19 08:38:38;;;;;;;8.40;5.75;;;;;;;12.18;42.79;100504.16;4996891;28;99010;-70
2021/01/19 08:41:09;;;;;;;6.03;5.63;;;;;;;12.20;42.78;100510.38;4995410;28;97832;-72
2021/01/19 08:43:37;;;;;;;6.38;5.20;;;;;;;12.18;42.90;100496.25;4996721;28;97473;-72
2021/01/19 08:46:13;;;;;;;6.15;5.65;;;;;;;12.17;42.86;100494.44;4997354;28;98042;-72
2021/01/19 08:48:42;;;;;;;6.15;5.30;;;;;;;12.23;42.67;100494.72;4995063;28;99203;-72
2021/01/19 08:51:22;;;;;;;7.53;5.47;;;;;;;12.27;42.59;100486.91;5009517;27;100831;-72
2021/01/19 08:53:49;;;;;;;7.43;5.25;;;;;;;12.27;42.65;100484.28;5004725;27;97488;-73
2021/01/19 08:56:19;;;;;;;5.90;5.40;;;;;;;12.29;42.78;100477.34;4994710;28;97552;-72
2021/01/19 08:58:47;;;;;;;5.25;4.85;;;;;;;12.31;42.71;100471.31;5009221;27;98436;-71
2021/01/19 09:01:15;;;;;;;7.35;5.18;;;;;;;12.32;42.67;100472.22;4993174;28;98280;-72
2021/01/19 09:03:53;;;;;;;6.03;5.60;;;;;;;12.32;42.35;100459.94;5009144;27;97843;-73
2021/01/19 09:06:22;;;;;;;6.05;5.28;;;;;;;12.30;42.40;100458.97;4993781;28;97376;-73
2021/01/19 09:08:59;;;;;;;7.95;5.30;;;;;;;12.32;42.33;100451.16;4993169;28;97987;-73
2021/01/19 09:11:31;;;;;;;8.43;5.63;;;;;;;12.34;42.40;100442.47;5009741;27;98163;-74
2021/01/19 09:14:02;;;;;;;6.80;6.10;;;;;;;12.32;42.50;100430.97;4992829;28;98161;-73
2021/01/19 09:16:31;;;;;;;6.70;5.95;;;;;;;12.30;42.60;100429.13;4992474;28;98049;-73
2021/01/19 09:19:02;;;;;;;9.13;6.03;;;;;;;12.23;42.19;100418.34;4992535;28;98707;-74
2021/01/19 09:21:30;;;;;;;7.55;6.75;;;;;;;12.18;42.63;100419.91;4991999;28;101255;-73
2021/01/19 09:23:58;;;;;;;7.50;5.35;;;;;;;12.19;42.85;100421.69;4992910;28;97788;-73
2021/01/19 09:26:25;;;;;;;7.00;5.70;;;;;;;12.18;42.54;100412.00;5010344;27;98031;-74
2021/01/19 09:28:54;;;;;;;6.72;5.78;;;;;;;12.14;42.72;100412.69;5008343;27;98206;-74
2021/01/19 09:31:23;;;;;;;8.18;5.43;;;;;;;12.04;43.01;100405.25;4993575;28;99488;-74
2021/01/19 09:33:52;;;;;;;5.70;5.10;;;;;;;12.01;42.51;100405.13;4984619;28;98042;-73
2021/01/19 09:36:21;;;;;;;6.20;4.70;;;;;;;11.90;43.03;100397.59;4992697;28;97242;-73
2021/01/19 09:38:51;;;;;;;8.68;5.63;;;;;;;11.87;42.95;100402.75;4991814;28;99500;-73
2021/01/19 09:41:21;;;;;;;6.45;5.13;;;;;;;11.82;43.25;100397.31;5010630;27;97621;-73
2021/01/19 09:43:51;;;;;;;8.27;5.03;;;;;;;11.81;43.30;100389.34;4992779;28;97699;-73
2021/01/19 09:46:22;;;;;;;6.20;4.97;;;;;;;11.81;42.98;100384.97;4994534;28;97016;-73
2021/01/19 09:48:51;;;;;;;8.95;4.95;;;;;;;11.75;43.04;100386.47;4991782;28;98405;-74
2021/01/19 09:51:25;;;;;;;6.82;5.57;;;;;;;11.69;43.35;100376.59;4990963;28;98574;-74
2021/01/19 09:53:56;;;;;;;6.45;5.25;;;;;;;11.70;43.55;100365.22;4993365;28;98735;-74
2021/01/19 09:56:24;;;;;;;9.18;5.38;;;;;;;11.62;43.63;100358.72;4993683;28;97007;-74
2021/01/19 09:59:00;;;;;;;6.22;5.70;;;;;;;11.58;43.56;100346.25;4993068;28;97593;-74
2021/01/19 10:01:29;;;;;;;6.07;5.03;;;;;;;11.55;43.88;100347.88;4987682;28;99406;-73
2021/01/19 10:04:17;;;;;;;9.82;5.50;;;;;;;11.50;43.64;100342.41;4991710;28;98086;-73
2021/01/19 10:06:45;;;;;;;10.82;5.45;;;;;;;11.48;43.66;100338.81;4992052;28;96864;-73
2021/01/19 10:09:20;;;;;;;6.28;5.68;;;;;;;11.42;43.33;100329.78;4989683;28;97632;-74
2021/01/19 10:12:08;;;;;;;7.88;5.45;;;;;;;11.41;43.40;100309.53;5013112;27;100135;-74
2021/01/19 10:14:38;;;;;;;5.80;5.20;;;;;;;11.42;43.83;100308.72;4996501;28;97423;-72
2021/01/19 10:17:28;;;;;;;5.47;5.05;;;;;;;11.41;43.80;100305.19;4994688;28;98414;-72
2021/01/19 10:20:08;;;;;;;5.82;5.25;;;;;;;11.35;43.54;100301.41;4995784;28;98012;-73
2021/01/19 10:22:38;;;;;;;6.13;5.47;;;;;;;11.30;44.03;100295.94;4997445;28;97782;-73
2021/01/19 10:25:07;;;;;;;5.53;5.00;;;;;;;11.26;44.20;100285.25;4983412;28;97452;-73
2021/01/19 10:27:56;;;;;;;5.18;4.88;;;;;;;11.17;43.56;100273.50;4983590;28;97414;-73
2021/01/19 10:30:28;;;;;;;4.90;4.53;;;;;;;11.19;43.82;100277.09;5012357;27;97329;-72
2021/01/19 10:32:57;;;;;;;4.78;4.40;;;;;;;11.11;44.30;100272.38;5015541;27;97683;-72
2021/01/19 10:35:30;;;;;;;9.10;4.93;;;;;;;11.09;43.83;100264.38;4996973;28;98050;-72
2021/01/19 10:37:59;;;;;;;8.25;7.03;;;;;;;11.18;44.33;100256.00;4996938;28;97736;-71
2021/01/19 10:40:27;;;;;;;7.37;5.50;;;;;;;11.24;44.45;100254.53;4996424;28;97945;-72
2021/01/19 10:42:55;;;;;;;6.70;5.40;;;;;;;11.22;43.96;100243.03;4999345;28;97773;-71
2021/01/19 10:45:25;;;;;;;6.65;5.82;;;;;;;11.32;44.22;100240.78;4996936;28;98354;-72
2021/01/19 10:47:53;;;;;;;4.78;4.47;;;;;;;11.30;44.44;100238.09;5000721;28;97855;-72
2021/01/19 10:50:25;;;;;;;5.35;4.85;;;;;;;11.23;43.96;100230.81;4999987;28;98198;-71
2021/01/19 10:52:55;;;;;;;6.18;4.22;;;;;;;11.18;44.44;100219.22;4997152;28;97652;-72
2021/01/19 10:55:22;;;;;;;4.82;4.50;;;;;;;11.16;44.32;100221.78;4998683;28;96833;-72
2021/01/19 10:57:54;;;;;;;4.63;4.13;;;;;;;11.10;44.09;100217.97;4995147;28;97731;-72
2021/01/19 11:00:22;;;;;;;4.90;4.30;;;;;;;11.08;44.47;100214.38;4995604;28;97989;-72
2021/01/19 11:02:50;;;;;;;4.90;4.60;;;;;;;11.03;44.66;100219.47;4996919;28;96807;-72
2021/01/19 11:05:18;;;;;;;5.05;4.25;;;;;;;11.02;44.45;100206.28;4998545;28;97384;-72
2021/01/19 11:07:49;;;;;;;5.05;4.60;;;;;;;10.96;44.76;100193.78;4997302;28;96838;-72
2021/01/19 11:10:19;;;;;;;4.72;4.28;;;;;;;10.93;44.67;100198.00;5014225;27;98145;-72
2021/01/19 11:12:47;;;;;;;4.72;4.43;;;;;;;10.94;44.27;100199.78;4995546;28;98279;-72
2021/01/19 11:15:15;;;;;;;6.38;4.78;;;;;;;10.89;44.64;100196.94;4995662;28;97417;-73
2021/01/19 11:17:44;;;;;;;4.78;3.78;;;;;;;10.74;44.97;100187.53;4996057;28;97207;-72
2021/01/19 11:20:14;;;;;;;3.67;3.47;;;;;;;10.76;44.61;100180.63;4998321;28;98312;-73
2021/01/19 11:22:43;;;;;;;4.47;4.18;;;;;;;10.74;44.45;100184.91;4995232;28;97778;-73
2021/01/19 11:25:12;;;;;;;3.90;3.60;;;;;;;10.73;44.76;100172.63;4995513;28;96903;-73
2021/01/19 11:27:40;;;;;;;5.17;4.50;;;;;;;10.88;44.35;100167.97;4993477;28;98781;-73
2021/01/19 11:30:09;;;;;;;4.63;4.32;;;;;;;10.86;44.71;100157.41;4995327;28;98050;-74
2021/01/19 11:32:37;;;;;;;5.28;4.80;;;;;;;11.01;44.52;100144.00;4994134;28;99079;-74
2021/01/19 11:35:07;;;;;;;4.82;4.43;;;;;;;11.04;44.93;100149.38;5012867;27;97132;-74
2021/01/19 11:37:35;;;;;;;3.83;3.60;;;;;;;11.03;44.62;100131.84;4996689;28;98082;-74
2021/01/19 11:40:04;;;;;;;4.47;4.07;;;;;;;11.03;44.41;100135.38;4995713;28;99175;-73
2021/01/19 11:42:35;;;;;;;5.13;4.72;;;;;;;11.07;44.65;100123.25;4995513;28;99088;-74